createdAt,value
2022-08-18T00:00:13.743Z,8.40
2022-08-18T00:03:00.803Z,8.70
2022-08-18T00:05:36.431Z,7.70
2022-08-18T00:08:10.624Z,8.00
2022-08-18T00:10:43.442Z,8.20
2022-08-18T00:13:15.027Z,8.60
2022-08-18T00:15:49.137Z,8.60
2022-08-18T00:18:21.177Z,9.40
2022-08-18T00:20:53.016Z,9.90
2022-08-18T00:23:24.663Z,8.80
2022-08-18T00:28:26.737Z,8.30
2022-08-18T00:30:58.380Z,9.10
2022-08-18T00:33:30.073Z,8.40
2022-08-18T00:38:32.231Z,9.50
2022-08-18T00:41:03.702Z,8.50
2022-08-18T00:43:40.501Z,9.00
2022-08-18T00:46:13.975Z,10.10
2022-08-18T00:48:48.581Z,9.20
2022-08-18T00:51:22.448Z,8.40
2022-08-18T00:53:56.296Z,9.30
2022-08-18T00:56:31.723Z,9.20
2022-08-18T00:59:06.720Z,9.50
2022-08-18T01:01:38.261Z,9.20
2022-08-18T01:04:11.255Z,9.10
2022-08-18T01:06:44.051Z,10.30
2022-08-18T01:09:17.952Z,9.70
2022-08-18T01:11:51.648Z,9.30
2022-08-18T01:14:23.429Z,10.00
2022-08-18T01:17:08.764Z,10.10
2022-08-18T01:19:58.035Z,9.10
2022-08-18T01:22:31.723Z,11.00
2022-08-18T01:25:32.217Z,9.80
2022-08-18T01:28:03.954Z,9.40
2022-08-18T01:30:45.777Z,10.00
2022-08-18T01:33:17.532Z,9.40
2022-08-18T01:35:50.226Z,10.10
2022-08-18T01:38:22.988Z,9.80
2022-08-18T01:41:23.961Z,9.80
2022-08-18T01:43:47.129Z,8.90
2022-08-18T01:46:22.265Z,10.10
2022-08-18T01:48:53.877Z,9.10
2022-08-18T01:51:38.112Z,10.30
2022-08-18T01:54:13.931Z,10.10
2022-08-18T01:56:45.584Z,9.50
2022-08-18T01:59:17.464Z,10.60
2022-08-18T02:01:53.366Z,10.00
2022-08-18T02:04:37.001Z,9.30
2022-08-18T02:07:10.580Z,9.60
2022-08-18T02:09:42.596Z,9.00
2022-08-18T02:12:15.201Z,9.40
2022-08-18T02:14:47.149Z,10.10
2022-08-18T02:17:18.682Z,9.90
2022-08-18T02:22:21.890Z,9.10
2022-08-18T02:24:53.536Z,9.40
2022-08-18T02:27:25.557Z,9.20
2022-08-18T02:29:56.985Z,9.90
2022-08-18T02:35:01.107Z,9.70
2022-08-18T02:37:32.753Z,9.60
2022-08-18T02:40:04.565Z,10.30
2022-08-18T02:42:36.444Z,9.60
2022-08-18T02:45:09.666Z,9.40
2022-08-18T02:47:41.429Z,9.90
2022-08-18T02:50:14.703Z,9.90
2022-08-18T02:52:46.353Z,9.20
2022-08-18T02:55:17.853Z,9.50
2022-08-18T03:00:21.025Z,10.00
2022-08-18T03:02:53.709Z,9.20
2022-08-18T03:05:25.219Z,10.30
2022-08-18T03:07:56.812Z,10.70
2022-08-18T03:13:06.641Z,9.60
2022-08-18T03:15:38.189Z,9.50
2022-08-18T03:18:09.789Z,9.80
2022-08-18T03:23:13.363Z,9.60
2022-08-18T03:25:50.364Z,10.30
2022-08-18T03:28:22.904Z,9.40
2022-08-18T03:30:54.426Z,9.40
2022-08-18T03:33:26.175Z,8.10
2022-08-18T03:38:27.628Z,10.40
2022-08-18T03:40:59.200Z,9.90
2022-08-18T03:46:23.610Z,9.70
2022-08-18T03:48:55.691Z,9.70
2022-08-18T03:51:29.132Z,11.00
2022-08-18T03:54:01.953Z,8.90
2022-08-18T03:56:35.445Z,9.00
2022-08-18T03:59:08.139Z,9.60
2022-08-18T04:01:40.927Z,9.00
2022-08-18T04:04:13.506Z,9.90
2022-08-18T04:06:46.685Z,9.30
2022-08-18T04:09:18.466Z,9.10
2022-08-18T04:14:25.146Z,9.50
2022-08-18T04:16:56.704Z,8.60
2022-08-18T04:22:00.459Z,9.20
2022-08-18T04:24:33.561Z,9.40
2022-08-18T04:27:08.341Z,9.40
2022-08-18T04:29:40.028Z,9.80
2022-08-18T04:32:11.829Z,8.90
2022-08-18T04:34:43.628Z,9.00
2022-08-18T04:42:17.683Z,10.10
2022-08-18T04:47:20.578Z,10.00
2022-08-18T04:49:52.174Z,9.50
2022-08-18T04:55:14.198Z,9.60
2022-08-18T04:57:45.813Z,8.60
2022-08-18T05:02:47.832Z,8.90
2022-08-18T05:05:20.059Z,8.80
2022-08-18T05:07:51.683Z,9.80
2022-08-18T05:10:23.450Z,9.60
2022-08-18T05:12:56.055Z,9.90
2022-08-18T05:15:27.655Z,8.90
2022-08-18T05:20:30.378Z,10.30
2022-08-18T05:23:01.862Z,9.10
2022-08-18T05:28:23.036Z,9.40
2022-08-18T05:30:54.853Z,9.20
2022-08-18T05:33:27.843Z,8.90
2022-08-18T05:36:11.153Z,9.10
2022-08-18T05:38:48.457Z,10.20
2022-08-18T05:41:23.280Z,9.50
2022-08-18T05:43:54.852Z,8.90
2022-08-18T05:46:32.776Z,9.60
2022-08-18T05:49:04.534Z,8.80
2022-08-18T05:51:38.270Z,9.00
2022-08-18T05:54:27.541Z,8.30
2022-08-18T05:57:03.097Z,9.00
2022-08-18T05:59:35.733Z,8.70
2022-08-18T06:02:12.464Z,9.20
2022-08-18T06:04:47.895Z,8.90
2022-08-18T06:07:25.363Z,9.90
2022-08-18T06:09:57.370Z,8.60
2022-08-18T06:12:37.310Z,9.30
2022-08-18T06:15:14.748Z,9.00
2022-08-18T06:18:02.923Z,8.80
2022-08-18T06:20:38.650Z,8.60
2022-08-18T06:23:20.610Z,7.60
2022-08-18T06:26:03.033Z,7.80
2022-08-18T06:28:41.733Z,8.00
2022-08-18T06:31:16.160Z,9.00
2022-08-18T06:33:54.864Z,8.40
2022-08-18T06:36:35.719Z,8.60
2022-08-18T06:39:09.822Z,9.70
2022-08-18T06:41:44.100Z,9.60
2022-08-18T06:44:21.423Z,9.10
2022-08-18T06:46:54.709Z,9.30
2022-08-18T06:49:40.138Z,9.90
2022-08-18T06:52:27.122Z,9.70
2022-08-18T06:55:00.701Z,8.50
2022-08-18T06:57:34.867Z,8.90
2022-08-18T07:00:11.539Z,9.90
2022-08-18T07:02:54.478Z,9.60
2022-08-18T07:05:28.084Z,9.20
2022-08-18T07:08:18.612Z,11.10
2022-08-18T07:10:51.564Z,10.10
2022-08-18T07:13:26.657Z,12.90
2022-08-18T07:16:16.045Z,13.00
2022-08-18T07:18:51.707Z,14.10
2022-08-18T07:21:31.298Z,15.10
2022-08-18T07:24:23.643Z,14.20
2022-08-18T07:27:03.758Z,14.10
2022-08-18T07:29:36.786Z,15.10
2022-08-18T07:32:21.046Z,15.00
2022-08-18T07:34:55.310Z,14.20
2022-08-18T07:37:29.170Z,13.30
2022-08-18T07:40:04.946Z,11.80
2022-08-18T07:43:00.477Z,11.90
2022-08-18T07:45:34.903Z,11.10
2022-08-18T07:48:36.614Z,11.20
2022-08-18T07:51:08.913Z,12.50
2022-08-18T07:53:54.812Z,11.20
2022-08-18T07:56:34.140Z,10.90
2022-08-18T07:59:08.605Z,11.00
2022-08-18T08:01:42.965Z,10.90
2022-08-18T08:04:25.493Z,12.00
2022-08-18T08:07:23.858Z,11.30
2022-08-18T08:10:03.316Z,10.70
2022-08-18T08:12:39.597Z,10.50
2022-08-18T08:15:18.010Z,10.70
2022-08-18T08:18:00.609Z,11.10
2022-08-18T08:20:34.277Z,10.90
2022-08-18T08:23:17.999Z,11.50
2022-08-18T08:26:01.309Z,11.20
2022-08-18T08:28:41.777Z,12.10
2022-08-18T08:31:36.137Z,11.10
2022-08-18T08:34:11.251Z,12.50
2022-08-18T08:36:44.979Z,12.50
2022-08-18T08:39:20.947Z,10.00
2022-08-18T08:42:07.322Z,9.80
2022-08-18T08:44:59.096Z,9.40
2022-08-18T08:47:33.415Z,12.60
2022-08-18T08:50:06.668Z,6.10
2022-08-18T08:52:42.555Z,7.60
2022-08-18T08:55:16.474Z,9.30
2022-08-18T08:57:49.386Z,9.10
2022-08-18T09:03:30.687Z,8.90
2022-08-18T09:06:10.670Z,8.50
2022-08-18T09:08:54.990Z,8.20
2022-08-18T09:25:49.749Z,7.30
2022-08-18T09:28:25.078Z,5.60
2022-08-18T09:34:25.112Z,5.60
2022-08-18T09:37:05.324Z,6.00
2022-08-18T09:39:58.065Z,5.80
2022-08-18T09:42:50.089Z,6.20
2022-08-18T09:45:43.481Z,6.50
2022-08-18T09:48:30.672Z,6.20
2022-08-18T09:51:36.284Z,6.50
2022-08-18T09:57:21.063Z,6.20
2022-08-18T10:00:24.338Z,5.60
2022-08-18T10:03:31.124Z,7.50
2022-08-18T10:06:16.202Z,8.20
2022-08-18T10:09:14.558Z,7.80
2022-08-18T10:12:10.330Z,7.70
2022-08-18T10:15:27.203Z,7.90
2022-08-18T10:18:26.461Z,7.90
2022-08-18T10:21:05.594Z,7.80
2022-08-18T10:27:24.003Z,7.70
2022-08-18T10:29:57.851Z,8.50
2022-08-18T10:35:59.650Z,8.50
2022-08-18T10:38:54.029Z,8.70
2022-08-18T10:41:30.817Z,9.30
2022-08-18T10:44:20.906Z,8.60
2022-08-18T10:46:54.906Z,9.00
2022-08-18T10:49:28.465Z,9.50
2022-08-18T10:52:20.987Z,9.30
2022-08-18T10:55:21.950Z,9.30
2022-08-18T10:58:24.096Z,8.60
2022-08-18T11:01:07.858Z,9.40
2022-08-18T11:03:51.603Z,9.10
2022-08-18T11:06:27.202Z,9.20
2022-08-18T11:09:00.935Z,8.70
2022-08-18T11:11:40.698Z,9.00
2022-08-18T11:14:52.645Z,10.50
2022-08-18T11:17:31.777Z,9.40
2022-08-18T11:20:04.496Z,9.20
2022-08-18T11:22:36.746Z,9.60
2022-08-18T11:25:28.087Z,10.10
2022-08-18T11:28:00.966Z,9.80
2022-08-18T11:30:35.171Z,10.40
2022-08-18T11:33:07.362Z,9.90
2022-08-18T11:35:49.154Z,10.10
2022-08-18T11:38:23.213Z,9.50
2022-08-18T11:41:13.122Z,10.60
2022-08-18T11:43:46.682Z,10.90
2022-08-18T11:46:31.612Z,11.10
2022-08-18T11:49:15.831Z,11.50
2022-08-18T11:52:02.285Z,12.10
2022-08-18T11:54:50.627Z,9.40
2022-08-18T11:57:46.516Z,8.70
2022-08-18T12:00:45.144Z,9.40
2022-08-18T12:03:30.991Z,9.40
2022-08-18T12:06:19.059Z,9.70
2022-08-18T12:08:59.077Z,8.80
2022-08-18T12:11:32.440Z,9.40
2022-08-18T12:14:30.123Z,8.50
2022-08-18T12:16:59.752Z,9.10
2022-08-18T12:19:34.512Z,8.30
2022-08-18T12:22:17.436Z,8.90
2022-08-18T12:24:49.465Z,8.70
2022-08-18T12:27:22.725Z,9.00
2022-08-18T12:29:55.535Z,8.60
2022-08-18T12:32:46.468Z,9.20
2022-08-18T12:35:22.559Z,8.30
2022-08-18T12:40:46.474Z,9.00
2022-08-18T12:43:17.980Z,8.40
2022-08-18T12:45:51.911Z,7.90
2022-08-18T12:48:25.358Z,7.10
2022-08-18T12:50:59.913Z,7.10
2022-08-18T12:53:57.857Z,8.20
2022-08-18T12:58:56.819Z,7.70
2022-08-18T13:01:29.769Z,7.60
2022-08-18T13:04:12.552Z,8.00
2022-08-18T13:07:01.333Z,7.80
2022-08-18T13:09:47.909Z,7.90
2022-08-18T13:12:27.499Z,8.00
2022-08-18T13:14:59.427Z,7.80
2022-08-18T13:17:33.451Z,8.00
2022-08-18T13:20:09.611Z,8.80
2022-08-18T13:22:41.858Z,8.30
2022-08-18T13:25:32.147Z,7.90
2022-08-18T13:28:09.843Z,7.80
2022-08-18T13:30:42.197Z,8.10
2022-08-18T13:33:33.856Z,8.00
2022-08-18T13:36:06.722Z,7.90
2022-08-18T13:38:38.408Z,7.60
2022-08-18T13:41:10.346Z,7.50
2022-08-18T13:43:47.960Z,8.00
2022-08-18T13:46:29.796Z,7.80
2022-08-18T13:49:03.161Z,7.70
2022-08-18T13:51:35.049Z,8.40
2022-08-18T13:54:26.970Z,7.20
2022-08-18T13:56:58.962Z,7.10
2022-08-18T13:59:33.243Z,7.00
2022-08-18T14:02:08.730Z,6.60
2022-08-18T14:04:40.581Z,6.70
2022-08-18T14:07:19.098Z,6.90
2022-08-18T14:09:59.300Z,7.10
2022-08-18T14:12:36.885Z,7.10
2022-08-18T14:15:13.161Z,6.80
2022-08-18T14:17:45.979Z,6.30
2022-08-18T14:20:37.651Z,6.80
2022-08-18T14:23:32.316Z,6.90
2022-08-18T14:26:22.866Z,6.80
2022-08-18T14:28:58.733Z,6.40
2022-08-18T14:31:30.477Z,6.50
2022-08-18T14:34:06.282Z,6.20
2022-08-18T14:36:38.046Z,5.40
2022-08-18T14:39:10.826Z,6.10
2022-08-18T14:41:49.564Z,5.60
2022-08-18T14:44:32.294Z,5.70
2022-08-18T14:47:04.232Z,5.40
2022-08-18T14:49:42.933Z,5.80
2022-08-18T14:52:19.443Z,5.60
2022-08-18T14:54:51.361Z,5.50
2022-08-18T14:57:23.169Z,5.40
2022-08-18T14:59:57.498Z,5.60
2022-08-18T15:02:29.040Z,6.30
2022-08-18T15:05:00.612Z,5.30
2022-08-18T15:07:32.941Z,6.00
2022-08-18T15:10:15.646Z,6.00
2022-08-18T15:12:51.237Z,5.60
2022-08-18T15:15:23.026Z,6.40
2022-08-18T15:17:56.829Z,6.30
2022-08-18T15:20:29.999Z,6.20
2022-08-18T15:23:22.836Z,5.60
2022-08-18T15:26:00.036Z,6.00
2022-08-18T15:28:32.372Z,5.80
2022-08-18T15:31:49.515Z,6.70
2022-08-18T15:33:57.623Z,5.60
2022-08-18T15:36:29.488Z,5.60
2022-08-18T15:39:01.407Z,6.70
2022-08-18T15:41:35.614Z,5.30
2022-08-18T15:44:17.352Z,6.00
2022-08-18T15:46:53.014Z,5.70
2022-08-18T15:49:25.257Z,6.30
2022-08-18T15:51:58.978Z,6.40
2022-08-18T15:54:30.601Z,6.20
2022-08-18T15:57:03.195Z,6.10
2022-08-18T15:59:40.034Z,6.20
2022-08-18T16:02:16.938Z,7.00
2022-08-18T16:04:51.024Z,6.40
2022-08-18T16:10:13.533Z,7.20
2022-08-18T16:12:45.950Z,7.10
2022-08-18T16:15:19.716Z,7.40
2022-08-18T16:17:56.103Z,8.30
2022-08-18T16:20:29.671Z,7.90
2022-08-18T16:23:01.292Z,8.50
2022-08-18T16:25:33.011Z,7.50
2022-08-18T16:28:05.663Z,9.10
2022-08-18T16:30:37.238Z,10.80
2022-08-18T16:33:09.777Z,10.50
2022-08-18T16:35:42.958Z,10.40
2022-08-18T16:38:17.065Z,10.30
2022-08-18T16:40:48.634Z,11.10
2022-08-18T16:45:50.147Z,10.40
2022-08-18T16:48:23.122Z,10.10
2022-08-18T16:50:54.567Z,10.80
2022-08-18T16:55:56.293Z,11.40
2022-08-18T16:58:45.543Z,11.00
2022-08-18T17:01:49.095Z,12.00
2022-08-18T17:04:22.774Z,11.20
2022-08-18T17:06:54.538Z,11.20
2022-08-18T17:09:26.840Z,11.40
2022-08-18T17:11:58.355Z,11.80
2022-08-18T17:14:31.659Z,11.90
2022-08-18T17:17:03.139Z,11.40
2022-08-18T17:19:37.880Z,11.50
2022-08-18T17:22:09.608Z,10.60
2022-08-18T17:24:46.353Z,12.40
2022-08-18T17:27:27.697Z,12.10
2022-08-18T17:30:09.505Z,12.10
2022-08-18T17:32:49.757Z,10.90
2022-08-18T17:35:28.694Z,11.40
2022-08-18T17:38:02.716Z,10.40
2022-08-18T17:40:35.695Z,10.80
2022-08-18T17:43:07.149Z,10.30
2022-08-18T17:45:38.810Z,11.00
2022-08-18T17:48:12.975Z,11.60
2022-08-18T17:51:04.095Z,13.10
2022-08-18T17:53:36.475Z,13.40
2022-08-18T17:56:11.746Z,12.80
2022-08-18T17:58:46.486Z,12.60
2022-08-18T18:01:18.624Z,12.60
2022-08-18T18:03:50.662Z,12.90
2022-08-18T18:06:31.796Z,13.00
2022-08-18T18:09:05.252Z,13.40
2022-08-18T18:11:39.521Z,13.30
2022-08-18T18:14:28.637Z,12.50
2022-08-18T18:17:11.776Z,11.70
2022-08-18T18:19:46.307Z,11.40
2022-08-18T18:22:24.350Z,12.20
2022-08-18T18:24:57.618Z,11.80
2022-08-18T18:27:35.766Z,12.10
2022-08-18T18:30:11.464Z,12.40
2022-08-18T18:32:59.114Z,12.10
2022-08-18T18:35:34.215Z,11.60
2022-08-18T18:38:08.472Z,12.00
2022-08-18T18:40:41.543Z,10.90
2022-08-18T18:43:23.731Z,11.50
2022-08-18T18:46:30.229Z,12.00
2022-08-18T18:49:15.203Z,11.90
2022-08-18T18:51:51.012Z,11.90
2022-08-18T18:54:33.316Z,12.40
2022-08-18T18:57:12.110Z,12.50
2022-08-18T19:02:34.448Z,13.90
2022-08-18T19:05:13.854Z,11.60
2022-08-18T19:07:53.987Z,13.50
2022-08-18T19:10:30.642Z,12.70
2022-08-18T19:13:05.107Z,14.10
2022-08-18T19:15:38.541Z,13.90
2022-08-18T19:18:28.806Z,14.40
2022-08-18T19:22:02.096Z,12.90
2022-08-18T19:23:58.870Z,12.60
2022-08-18T19:26:32.724Z,13.10
2022-08-18T19:29:13.067Z,13.40
2022-08-18T19:31:50.778Z,13.30
2022-08-18T19:34:30.161Z,13.70
2022-08-18T19:37:08.004Z,13.60
2022-08-18T19:39:44.505Z,14.70
2022-08-18T19:42:19.278Z,13.00
2022-08-18T19:45:15.036Z,13.30
2022-08-18T19:47:49.735Z,13.80
2022-08-18T19:50:25.882Z,14.50
2022-08-18T19:53:16.972Z,17.10
2022-08-18T19:56:02.845Z,14.80
2022-08-18T19:59:15.427Z,13.80
2022-08-18T20:01:50.618Z,12.50
2022-08-18T20:04:28.774Z,12.20
2022-08-18T20:07:21.446Z,11.60
2022-08-18T20:10:04.168Z,11.50
2022-08-18T20:12:56.893Z,11.90
2022-08-18T20:15:31.483Z,11.00
2022-08-18T20:18:22.982Z,12.40
2022-08-18T20:21:48.770Z,13.10
2022-08-18T20:24:38.898Z,13.10
2022-08-18T20:27:35.439Z,13.70
2022-08-18T20:30:33.674Z,13.50
2022-08-18T20:33:16.853Z,14.20
2022-08-18T20:36:03.552Z,14.60
2022-08-18T20:38:37.209Z,13.30
2022-08-18T20:41:31.682Z,14.00
2022-08-18T20:44:10.022Z,13.30
2022-08-18T20:46:44.671Z,14.00
2022-08-18T20:49:23.269Z,15.40
2022-08-18T20:52:04.266Z,14.80
2022-08-18T20:54:57.758Z,14.10
2022-08-18T20:57:35.559Z,14.10
2022-08-18T21:00:16.015Z,14.70
2022-08-18T21:05:33.048Z,13.70
2022-08-18T21:08:06.521Z,13.50
2022-08-18T21:10:38.048Z,12.50
2022-08-18T21:13:09.624Z,13.70
2022-08-18T21:15:41.282Z,13.60
2022-08-18T21:18:20.654Z,13.80
2022-08-18T21:20:52.860Z,13.60
2022-08-18T21:23:29.743Z,12.90
2022-08-18T21:26:06.406Z,13.00
2022-08-18T21:28:39.603Z,13.10
2022-08-18T21:31:42.838Z,13.40
2022-08-18T21:34:19.105Z,13.90
2022-08-18T21:36:56.650Z,14.70
2022-08-18T21:39:28.197Z,13.60
2022-08-18T21:42:01.708Z,13.80
2022-08-18T21:44:44.855Z,12.60
2022-08-18T21:47:21.933Z,12.90
2022-08-18T21:50:09.798Z,14.10
2022-08-18T21:52:51.853Z,14.10
2022-08-18T21:55:29.470Z,15.10
2022-08-18T21:58:09.260Z,14.20
2022-08-18T22:00:41.606Z,14.80
2022-08-18T22:03:22.564Z,15.70
2022-08-18T22:06:03.729Z,15.50
2022-08-18T22:08:49.882Z,14.50
2022-08-18T22:12:01.197Z,14.00
2022-08-18T22:14:55.270Z,15.40
2022-08-18T22:17:45.406Z,14.90
2022-08-18T22:20:43.565Z,14.60
2022-08-18T22:23:51.428Z,13.10
2022-08-18T22:26:27.057Z,14.70
2022-08-18T22:29:04.980Z,13.90
2022-08-18T22:31:39.160Z,14.60
2022-08-18T22:34:12.413Z,15.30
2022-08-18T22:36:45.977Z,15.00
2022-08-18T22:39:20.238Z,14.50
2022-08-18T22:41:51.867Z,15.20
2022-08-18T22:46:53.450Z,14.70
2022-08-18T22:49:25.276Z,16.10
2022-08-18T22:51:58.100Z,15.00
2022-08-18T22:54:29.686Z,15.50
2022-08-18T22:59:34.431Z,15.00
2022-08-18T23:02:06.106Z,14.30
2022-08-18T23:04:37.743Z,15.10
2022-08-18T23:07:09.496Z,15.70
2022-08-18T23:09:41.782Z,15.60
2022-08-18T23:12:15.008Z,15.00
2022-08-18T23:14:49.793Z,14.00
2022-08-18T23:17:22.749Z,15.40
2022-08-18T23:19:54.522Z,16.00
2022-08-18T23:22:26.922Z,14.90
2022-08-18T23:24:58.889Z,15.30
2022-08-18T23:27:41.373Z,14.90
2022-08-18T23:30:14.215Z,14.90
2022-08-18T23:32:45.901Z,15.10
2022-08-18T23:35:17.867Z,15.60
2022-08-18T23:37:49.559Z,15.70
2022-08-18T23:42:51.912Z,16.40
2022-08-18T23:45:23.991Z,15.50
2022-08-18T23:47:57.626Z,16.10
2022-08-18T23:50:29.799Z,16.10
2022-08-18T23:53:01.780Z,15.70
2022-08-18T23:55:34.603Z,17.50
2022-08-18T23:58:06.475Z,16.50
